sensor_id;sensor_type;location;lat;lon;timestamp;temperature;humidity
6690;DHT22;76797;51.590;8.116;2024-02-26T00:00:28;7.80;99.90
6690;DHT22;76797;51.590;8.116;2024-02-26T00:02:54;7.80;99.90
6690;DHT22;76797;51.590;8.116;2024-02-26T00:05:20;8.00;99.90
6690;DHT22;76797;51.590;8.116;2024-02-26T00:07:45;7.80;99.90
6690;DHT22;76797;51.590;8.116;2024-02-26T00:10:13;7.80;99.90
6690;DHT22;76797;51.590;8.116;2024-02-26T00:12:39;7.90;99.90
6690;DHT22;76797;51.590;8.116;2024-02-26T00:15:10;7.90;99.90
6690;DHT22;76797;51.590;8.116;2024-02-26T00:17:36;7.90;99.90
6690;DHT22;76797;51.590;8.116;2024-02-26T00:20:03;8.00;99.90
6690;DHT22;76797;51.590;8.116;2024-02-26T00:22:30;8.10;99.90
6690;DHT22;76797;51.590;8.116;2024-02-26T00:24:56;8.10;99.90
6690;DHT22;76797;51.590;8.116;2024-02-26T00:27:22;8.20;99.90
6690;DHT22;76797;51.590;8.116;2024-02-26T00:29:47;8.20;99.90
6690;DHT22;76797;51.590;8.116;2024-02-26T00:32:13;8.30;99.90
6690;DHT22;76797;51.590;8.116;2024-02-26T00:34:38;8.30;99.90
6690;DHT22;76797;51.590;8.116;2024-02-26T00:37:04;8.30;99.90
6690;DHT22;76797;51.590;8.116;2024-02-26T00:39:30;8.30;99.90
6690;DHT22;76797;51.590;8.116;2024-02-26T00:41:55;8.20;99.90
6690;DHT22;76797;51.590;8.116;2024-02-26T00:44:21;8.30;99.90
6690;DHT22;76797;51.590;8.116;2024-02-26T00:46:46;8.40;99.90
6690;DHT22;76797;51.590;8.116;2024-02-26T00:49:12;8.40;99.90
6690;DHT22;76797;51.590;8.116;2024-02-26T00:51:37;8.40;99.90
6690;DHT22;76797;51.590;8.116;2024-02-26T00:54:03;8.80;99.90
6690;DHT22;76797;51.590;8.116;2024-02-26T00:56:28;8.40;99.90
6690;DHT22;76797;51.590;8.116;2024-02-26T00:58:54;8.40;99.90
6690;DHT22;76797;51.590;8.116;2024-02-26T01:01:19;8.40;99.90
6690;DHT22;76797;51.590;8.116;2024-02-26T01:03:45;8.40;99.90
6690;DHT22;76797;51.590;8.116;2024-02-26T01:06:11;8.40;99.90
6690;DHT22;76797;51.590;8.116;2024-02-26T01:08:36;8.40;99.90
6690;DHT22;76797;51.590;8.116;2024-02-26T01:11:03;8.40;99.90
6690;DHT22;76797;51.590;8.116;2024-02-26T01:13:29;8.30;99.90
6690;DHT22;76797;51.590;8.116;2024-02-26T01:15:55;8.30;99.90
6690;DHT22;76797;51.590;8.116;2024-02-26T01:18:20;8.40;99.90
6690;DHT22;76797;51.590;8.116;2024-02-26T01:20:46;8.30;99.90
6690;DHT22;76797;51.590;8.116;2024-02-26T01:23:12;8.30;99.90
6690;DHT22;76797;51.590;8.116;2024-02-26T01:25:38;8.30;99.90
6690;DHT22;76797;51.590;8.116;2024-02-26T01:28:05;8.30;99.90
6690;DHT22;76797;51.590;8.116;2024-02-26T01:30:31;8.30;99.90
6690;DHT22;76797;51.590;8.116;2024-02-26T01:32:56;8.50;99.90
6690;DHT22;76797;51.590;8.116;2024-02-26T01:35:22;8.40;99.90
6690;DHT22;76797;51.590;8.116;2024-02-26T01:37:48;8.30;99.90
6690;DHT22;76797;51.590;8.116;2024-02-26T01:40:13;8.70;99.90
6690;DHT22;76797;51.590;8.116;2024-02-26T01:42:43;8.30;99.90
6690;DHT22;76797;51.590;8.116;2024-02-26T01:45:14;8.30;99.90
6690;DHT22;76797;51.590;8.116;2024-02-26T01:47:41;8.30;99.90
6690;DHT22;76797;51.590;8.116;2024-02-26T01:50:08;8.60;99.90
6690;DHT22;76797;51.590;8.116;2024-02-26T01:52:34;8.30;99.90
6690;DHT22;76797;51.590;8.116;2024-02-26T01:54:59;8.40;99.90
6690;DHT22;76797;51.590;8.116;2024-02-26T01:57:27;8.30;99.90
6690;DHT22;76797;51.590;8.116;2024-02-26T01:59:53;8.30;99.90
6690;DHT22;76797;51.590;8.116;2024-02-26T02:02:19;8.30;99.90
6690;DHT22;76797;51.590;8.116;2024-02-26T02:04:44;8.30;99.90
6690;DHT22;76797;51.590;8.116;2024-02-26T02:07:10;8.30;99.90
6690;DHT22;76797;51.590;8.116;2024-02-26T02:09:36;8.30;99.90
6690;DHT22;76797;51.590;8.116;2024-02-26T02:12:02;8.30;99.90
6690;DHT22;76797;51.590;8.116;2024-02-26T02:14:28;8.30;99.90
6690;DHT22;76797;51.590;8.116;2024-02-26T02:16:53;8.40;99.90
6690;DHT22;76797;51.590;8.116;2024-02-26T02:19:19;8.40;99.90
6690;DHT22;76797;51.590;8.116;2024-02-26T02:21:44;8.30;99.90
6690;DHT22;76797;51.590;8.116;2024-02-26T02:24:10;8.40;99.90
6690;DHT22;76797;51.590;8.116;2024-02-26T02:26:35;8.40;99.90
6690;DHT22;76797;51.590;8.116;2024-02-26T02:29:02;8.40;99.90
6690;DHT22;76797;51.590;8.116;2024-02-26T02:31:28;8.70;99.90
6690;DHT22;76797;51.590;8.116;2024-02-26T02:33:53;8.40;99.90
6690;DHT22;76797;51.590;8.116;2024-02-26T02:36:19;8.60;99.90
6690;DHT22;76797;51.590;8.116;2024-02-26T02:38:51;8.40;99.90
6690;DHT22;76797;51.590;8.116;2024-02-26T02:41:17;8.30;99.90
6690;DHT22;76797;51.590;8.116;2024-02-26T02:43:43;8.40;99.90
6690;DHT22;76797;51.590;8.116;2024-02-26T02:46:09;8.30;99.90
6690;DHT22;76797;51.590;8.116;2024-02-26T02:48:37;8.40;99.90
6690;DHT22;76797;51.590;8.116;2024-02-26T02:51:02;8.30;99.90
6690;DHT22;76797;51.590;8.116;2024-02-26T02:53:28;8.30;99.90
6690;DHT22;76797;51.590;8.116;2024-02-26T02:55:54;8.50;99.90
6690;DHT22;76797;51.590;8.116;2024-02-26T02:58:19;8.30;99.90
6690;DHT22;76797;51.590;8.116;2024-02-26T03:00:45;8.30;99.90
6690;DHT22;76797;51.590;8.116;2024-02-26T03:03:10;8.40;99.90
6690;DHT22;76797;51.590;8.116;2024-02-26T03:05:36;8.60;99.90
6690;DHT22;76797;51.590;8.116;2024-02-26T03:08:02;8.40;99.90
6690;DHT22;76797;51.590;8.116;2024-02-26T03:10:27;8.40;99.90
6690;DHT22;76797;51.590;8.116;2024-02-26T03:12:53;8.60;99.90
6690;DHT22;76797;51.590;8.116;2024-02-26T03:15:19;8.40;99.90
6690;DHT22;76797;51.590;8.116;2024-02-26T03:17:45;8.40;99.90
6690;DHT22;76797;51.590;8.116;2024-02-26T03:20:10;8.40;99.90
6690;DHT22;76797;51.590;8.116;2024-02-26T03:22:38;8.40;99.90
6690;DHT22;76797;51.590;8.116;2024-02-26T03:25:04;8.40;99.90
6690;DHT22;76797;51.590;8.116;2024-02-26T03:27:30;8.50;99.90
6690;DHT22;76797;51.590;8.116;2024-02-26T03:29:55;8.40;99.90
6690;DHT22;76797;51.590;8.116;2024-02-26T03:32:22;8.50;99.90
6690;DHT22;76797;51.590;8.116;2024-02-26T03:34:47;8.50;99.90
6690;DHT22;76797;51.590;8.116;2024-02-26T03:37:13;8.50;99.90
6690;DHT22;76797;51.590;8.116;2024-02-26T03:39:38;8.60;99.90
6690;DHT22;76797;51.590;8.116;2024-02-26T03:42:04;8.50;99.90
6690;DHT22;76797;51.590;8.116;2024-02-26T03:44:30;8.60;99.90
6690;DHT22;76797;51.590;8.116;2024-02-26T03:46:55;8.70;99.90
6690;DHT22;76797;51.590;8.116;2024-02-26T03:49:21;8.60;99.90
6690;DHT22;76797;51.590;8.116;2024-02-26T03:51:47;8.60;99.90
6690;DHT22;76797;51.590;8.116;2024-02-26T03:54:13;8.60;99.90
6690;DHT22;76797;51.590;8.116;2024-02-26T03:56:39;9.10;99.90
6690;DHT22;76797;51.590;8.116;2024-02-26T03:59:05;9.10;99.90
6690;DHT22;76797;51.590;8.116;2024-02-26T04:01:30;8.70;99.90
6690;DHT22;76797;51.590;8.116;2024-02-26T04:03:56;8.70;99.90
6690;DHT22;76797;51.590;8.116;2024-02-26T04:06:21;8.70;99.90
6690;DHT22;76797;51.590;8.116;2024-02-26T04:08:48;8.80;99.90
6690;DHT22;76797;51.590;8.116;2024-02-26T04:11:14;8.80;99.90
6690;DHT22;76797;51.590;8.116;2024-02-26T04:13:46;8.80;99.90
6690;DHT22;76797;51.590;8.116;2024-02-26T04:16:15;8.90;99.90
6690;DHT22;76797;51.590;8.116;2024-02-26T04:18:41;8.80;99.90
6690;DHT22;76797;51.590;8.116;2024-02-26T04:21:07;8.80;99.90
6690;DHT22;76797;51.590;8.116;2024-02-26T04:23:33;8.80;99.90
6690;DHT22;76797;51.590;8.116;2024-02-26T04:25:58;9.10;99.90
6690;DHT22;76797;51.590;8.116;2024-02-26T04:28:24;8.90;99.90
6690;DHT22;76797;51.590;8.116;2024-02-26T04:30:51;8.80;99.90
6690;DHT22;76797;51.590;8.116;2024-02-26T04:33:17;8.80;99.90
6690;DHT22;76797;51.590;8.116;2024-02-26T04:35:42;9.20;99.90
6690;DHT22;76797;51.590;8.116;2024-02-26T04:38:08;8.80;99.90
6690;DHT22;76797;51.590;8.116;2024-02-26T04:40:33;8.70;99.90
6690;DHT22;76797;51.590;8.116;2024-02-26T04:42:59;8.70;99.90
6690;DHT22;76797;51.590;8.116;2024-02-26T04:45:24;8.70;99.90
6690;DHT22;76797;51.590;8.116;2024-02-26T04:47:50;8.60;99.90
6690;DHT22;76797;51.590;8.116;2024-02-26T04:50:16;8.60;99.90
6690;DHT22;76797;51.590;8.116;2024-02-26T04:52:42;8.60;99.90
6690;DHT22;76797;51.590;8.116;2024-02-26T04:55:07;8.60;99.90
6690;DHT22;76797;51.590;8.116;2024-02-26T04:57:33;8.80;99.90
6690;DHT22;76797;51.590;8.116;2024-02-26T04:59:59;8.50;99.90
6690;DHT22;76797;51.590;8.116;2024-02-26T05:02:24;8.70;99.90
6690;DHT22;76797;51.590;8.116;2024-02-26T05:04:50;8.40;99.90
6690;DHT22;76797;51.590;8.116;2024-02-26T05:07:15;8.40;99.90
6690;DHT22;76797;51.590;8.116;2024-02-26T05:09:43;8.50;99.90
6690;DHT22;76797;51.590;8.116;2024-02-26T05:12:09;8.50;99.90
6690;DHT22;76797;51.590;8.116;2024-02-26T05:14:34;8.50;99.90
6690;DHT22;76797;51.590;8.116;2024-02-26T05:17:00;8.50;99.90
6690;DHT22;76797;51.590;8.116;2024-02-26T05:19:26;8.60;99.90
6690;DHT22;76797;51.590;8.116;2024-02-26T05:21:51;8.60;99.90
6690;DHT22;76797;51.590;8.116;2024-02-26T05:24:17;8.70;99.90
6690;DHT22;76797;51.590;8.116;2024-02-26T05:26:43;9.00;99.90
6690;DHT22;76797;51.590;8.116;2024-02-26T05:29:09;8.60;99.90
6690;DHT22;76797;51.590;8.116;2024-02-26T05:31:34;8.70;99.90
6690;DHT22;76797;51.590;8.116;2024-02-26T05:34:00;8.70;99.90
6690;DHT22;76797;51.590;8.116;2024-02-26T05:36:26;8.70;99.90
6690;DHT22;76797;51.590;8.116;2024-02-26T05:38:53;8.70;99.90
6690;DHT22;76797;51.590;8.116;2024-02-26T05:41:19;8.70;99.90
6690;DHT22;76797;51.590;8.116;2024-02-26T05:43:49;8.70;99.90
6690;DHT22;76797;51.590;8.116;2024-02-26T05:46:19;8.80;99.90
6690;DHT22;76797;51.590;8.116;2024-02-26T05:48:47;8.80;99.90
6690;DHT22;76797;51.590;8.116;2024-02-26T05:51:13;8.80;99.90
6690;DHT22;76797;51.590;8.116;2024-02-26T05:53:39;8.80;99.90
6690;DHT22;76797;51.590;8.116;2024-02-26T05:56:05;8.80;99.90
6690;DHT22;76797;51.590;8.116;2024-02-26T05:58:31;8.80;99.90
6690;DHT22;76797;51.590;8.116;2024-02-26T06:00:56;9.10;99.90
6690;DHT22;76797;51.590;8.116;2024-02-26T06:03:22;8.90;99.90
6690;DHT22;76797;51.590;8.116;2024-02-26T06:05:47;8.90;99.90
6690;DHT22;76797;51.590;8.116;2024-02-26T06:08:13;8.90;99.90
6690;DHT22;76797;51.590;8.116;2024-02-26T06:10:39;9.00;99.90
6690;DHT22;76797;51.590;8.116;2024-02-26T06:13:05;9.20;99.90
6690;DHT22;76797;51.590;8.116;2024-02-26T06:15:30;9.00;99.90
6690;DHT22;76797;51.590;8.116;2024-02-26T06:17:56;8.90;99.90
6690;DHT22;76797;51.590;8.116;2024-02-26T06:20:21;9.30;99.90
6690;DHT22;76797;51.590;8.116;2024-02-26T06:22:47;9.00;99.90
6690;DHT22;76797;51.590;8.116;2024-02-26T06:25:12;9.00;99.90
6690;DHT22;76797;51.590;8.116;2024-02-26T06:27:38;9.00;99.90
6690;DHT22;76797;51.590;8.116;2024-02-26T06:30:04;9.00;99.90
6690;DHT22;76797;51.590;8.116;2024-02-26T06:32:30;9.00;99.90
6690;DHT22;76797;51.590;8.116;2024-02-26T06:34:55;9.10;99.90
6690;DHT22;76797;51.590;8.116;2024-02-26T06:37:21;9.00;99.90
6690;DHT22;76797;51.590;8.116;2024-02-26T06:39:47;9.40;99.90
6690;DHT22;76797;51.590;8.116;2024-02-26T06:42:13;9.00;99.90
6690;DHT22;76797;51.590;8.116;2024-02-26T06:44:38;9.10;99.90
6690;DHT22;76797;51.590;8.116;2024-02-26T06:47:04;9.20;99.90
6690;DHT22;76797;51.590;8.116;2024-02-26T06:49:30;9.00;99.90
6690;DHT22;76797;51.590;8.116;2024-02-26T06:51:55;9.00;99.90
6690;DHT22;76797;51.590;8.116;2024-02-26T06:54:21;9.00;99.90
6690;DHT22;76797;51.590;8.116;2024-02-26T06:56:46;9.00;99.90
6690;DHT22;76797;51.590;8.116;2024-02-26T06:59:12;9.40;99.90
6690;DHT22;76797;51.590;8.116;2024-02-26T07:01:41;9.00;99.90
6690;DHT22;76797;51.590;8.116;2024-02-26T07:04:06;9.00;99.90
6690;DHT22;76797;51.590;8.116;2024-02-26T07:06:32;9.10;99.90
6690;DHT22;76797;51.590;8.116;2024-02-26T07:08:58;9.10;99.90
6690;DHT22;76797;51.590;8.116;2024-02-26T07:11:23;9.10;99.90
6690;DHT22;76797;51.590;8.116;2024-02-26T07:13:49;9.10;99.90
6690;DHT22;76797;51.590;8.116;2024-02-26T07:16:15;9.30;99.90
6690;DHT22;76797;51.590;8.116;2024-02-26T07:18:40;9.60;99.90
6690;DHT22;76797;51.590;8.116;2024-02-26T07:21:06;9.20;99.90
6690;DHT22;76797;51.590;8.116;2024-02-26T07:23:32;9.20;99.90
6690;DHT22;76797;51.590;8.116;2024-02-26T07:25:57;9.20;99.90
6690;DHT22;76797;51.590;8.116;2024-02-26T07:28:24;9.30;99.90
6690;DHT22;76797;51.590;8.116;2024-02-26T07:30:49;9.30;99.90
6690;DHT22;76797;51.590;8.116;2024-02-26T07:33:15;9.30;99.90
6690;DHT22;76797;51.590;8.116;2024-02-26T07:35:40;9.30;99.90
6690;DHT22;76797;51.590;8.116;2024-02-26T07:38:06;9.30;99.90
6690;DHT22;76797;51.590;8.116;2024-02-26T07:40:32;9.40;99.90
6690;DHT22;76797;51.590;8.116;2024-02-26T07:42:57;9.40;99.90
6690;DHT22;76797;51.590;8.116;2024-02-26T07:45:23;9.40;99.90
6690;DHT22;76797;51.590;8.116;2024-02-26T07:47:48;9.60;99.90
6690;DHT22;76797;51.590;8.116;2024-02-26T07:50:14;9.40;99.90
6690;DHT22;76797;51.590;8.116;2024-02-26T07:52:40;9.50;99.90
6690;DHT22;76797;51.590;8.116;2024-02-26T07:55:06;9.70;99.90
6690;DHT22;76797;51.590;8.116;2024-02-26T07:57:35;9.50;99.90
6690;DHT22;76797;51.590;8.116;2024-02-26T08:00:01;9.60;99.90
6690;DHT22;76797;51.590;8.116;2024-02-26T08:02:27;9.60;99.90
6690;DHT22;76797;51.590;8.116;2024-02-26T08:04:53;9.70;99.90
6690;DHT22;76797;51.590;8.116;2024-02-26T08:07:18;9.90;99.90
6690;DHT22;76797;51.590;8.116;2024-02-26T08:09:45;9.70;99.90
6690;DHT22;76797;51.590;8.116;2024-02-26T08:12:11;9.70;99.90
6690;DHT22;76797;51.590;8.116;2024-02-26T08:14:37;9.70;99.90
6690;DHT22;76797;51.590;8.116;2024-02-26T08:17:02;9.80;99.90
6690;DHT22;76797;51.590;8.116;2024-02-26T08:19:28;9.80;99.90
6690;DHT22;76797;51.590;8.116;2024-02-26T08:21:53;9.80;99.90
6690;DHT22;76797;51.590;8.116;2024-02-26T08:24:20;10.30;99.90
6690;DHT22;76797;51.590;8.116;2024-02-26T08:26:45;9.90;99.90
6690;DHT22;76797;51.590;8.116;2024-02-26T08:29:11;9.90;99.90
6690;DHT22;76797;51.590;8.116;2024-02-26T08:31:37;10.10;99.90
6690;DHT22;76797;51.590;8.116;2024-02-26T08:34:03;9.90;99.90
6690;DHT22;76797;51.590;8.116;2024-02-26T08:36:30;10.00;99.90
6690;DHT22;76797;51.590;8.116;2024-02-26T08:38:55;10.00;99.90
6690;DHT22;76797;51.590;8.116;2024-02-26T08:41:21;10.00;99.90
6690;DHT22;76797;51.590;8.116;2024-02-26T08:43:46;10.10;99.90
6690;DHT22;76797;51.590;8.116;2024-02-26T08:46:15;10.20;99.90
6690;DHT22;76797;51.590;8.116;2024-02-26T08:48:40;10.20;99.90
6690;DHT22;76797;51.590;8.116;2024-02-26T08:51:07;10.20;99.90
6690;DHT22;76797;51.590;8.116;2024-02-26T08:53:33;10.30;99.90
6690;DHT22;76797;51.590;8.116;2024-02-26T08:55:59;10.30;99.90
6690;DHT22;76797;51.590;8.116;2024-02-26T08:58:25;10.40;99.90
6690;DHT22;76797;51.590;8.116;2024-02-26T09:00:51;10.50;99.90
6690;DHT22;76797;51.590;8.116;2024-02-26T09:03:17;10.50;99.90
6690;DHT22;76797;51.590;8.116;2024-02-26T09:05:43;10.60;99.90
6690;DHT22;76797;51.590;8.116;2024-02-26T09:08:08;10.60;99.90
6690;DHT22;76797;51.590;8.116;2024-02-26T09:10:34;10.70;99.90
6690;DHT22;76797;51.590;8.116;2024-02-26T09:12:59;10.70;99.90
6690;DHT22;76797;51.590;8.116;2024-02-26T09:15:25;10.80;99.90
6690;DHT22;76797;51.590;8.116;2024-02-26T09:17:51;10.80;99.90
6690;DHT22;76797;51.590;8.116;2024-02-26T09:20:17;11.00;99.90
6690;DHT22;76797;51.590;8.116;2024-02-26T09:22:47;10.90;99.90
6690;DHT22;76797;51.590;8.116;2024-02-26T09:25:13;11.00;99.90
6690;DHT22;76797;51.590;8.116;2024-02-26T09:27:41;11.00;99.90
6690;DHT22;76797;51.590;8.116;2024-02-26T09:30:08;11.00;99.90
6690;DHT22;76797;51.590;8.116;2024-02-26T09:32:33;11.10;99.90
6690;DHT22;76797;51.590;8.116;2024-02-26T09:34:59;11.10;99.90
6690;DHT22;76797;51.590;8.116;2024-02-26T09:37:25;11.40;99.90
6690;DHT22;76797;51.590;8.116;2024-02-26T09:39:50;11.20;99.90
6690;DHT22;76797;51.590;8.116;2024-02-26T09:42:18;11.30;99.90
6690;DHT22;76797;51.590;8.116;2024-02-26T09:44:45;11.30;99.90
6690;DHT22;76797;51.590;8.116;2024-02-26T09:47:12;11.40;99.90
6690;DHT22;76797;51.590;8.116;2024-02-26T09:49:46;11.40;99.90
6690;DHT22;76797;51.590;8.116;2024-02-26T09:52:15;11.50;99.90
6690;DHT22;76797;51.590;8.116;2024-02-26T09:54:41;11.50;99.90
6690;DHT22;76797;51.590;8.116;2024-02-26T09:57:09;11.50;99.90
6690;DHT22;76797;51.590;8.116;2024-02-26T09:59:41;11.60;99.90
6690;DHT22;76797;51.590;8.116;2024-02-26T10:02:14;11.60;99.90
6690;DHT22;76797;51.590;8.116;2024-02-26T10:04:40;11.60;99.90
6690;DHT22;76797;51.590;8.116;2024-02-26T10:07:10;11.70;99.90
6690;DHT22;76797;51.590;8.116;2024-02-26T10:09:36;11.70;99.90
6690;DHT22;76797;51.590;8.116;2024-02-26T10:12:03;11.80;99.90
6690;DHT22;76797;51.590;8.116;2024-02-26T10:14:30;11.80;99.90
6690;DHT22;76797;51.590;8.116;2024-02-26T10:16:56;11.90;99.90
6690;DHT22;76797;51.590;8.116;2024-02-26T10:19:29;11.90;99.90
6690;DHT22;76797;51.590;8.116;2024-02-26T10:21:58;11.90;99.90
6690;DHT22;76797;51.590;8.116;2024-02-26T10:24:25;11.90;99.90
6690;DHT22;76797;51.590;8.116;2024-02-26T10:26:52;11.90;99.90
6690;DHT22;76797;51.590;8.116;2024-02-26T10:29:19;12.00;99.90
6690;DHT22;76797;51.590;8.116;2024-02-26T10:31:45;12.10;99.90
6690;DHT22;76797;51.590;8.116;2024-02-26T10:34:10;12.10;99.90
6690;DHT22;76797;51.590;8.116;2024-02-26T10:36:36;12.10;99.90
6690;DHT22;76797;51.590;8.116;2024-02-26T10:39:05;12.10;99.90
6690;DHT22;76797;51.590;8.116;2024-02-26T10:41:30;12.20;99.90
6690;DHT22;76797;51.590;8.116;2024-02-26T10:43:58;12.30;99.90
6690;DHT22;76797;51.590;8.116;2024-02-26T10:46:23;12.20;99.90
6690;DHT22;76797;51.590;8.116;2024-02-26T10:48:51;12.20;99.90
6690;DHT22;76797;51.590;8.116;2024-02-26T10:51:21;12.30;99.90
6690;DHT22;76797;51.590;8.116;2024-02-26T10:53:49;12.30;99.90
6690;DHT22;76797;51.590;8.116;2024-02-26T10:56:19;12.30;99.90
6690;DHT22;76797;51.590;8.116;2024-02-26T10:58:46;12.30;99.90
6690;DHT22;76797;51.590;8.116;2024-02-26T11:01:13;12.30;99.90
6690;DHT22;76797;51.590;8.116;2024-02-26T11:03:38;12.40;99.90
6690;DHT22;76797;51.590;8.116;2024-02-26T11:06:05;12.30;99.90
6690;DHT22;76797;51.590;8.116;2024-02-26T11:08:31;12.30;99.90
6690;DHT22;76797;51.590;8.116;2024-02-26T11:10:57;12.30;99.90
6690;DHT22;76797;51.590;8.116;2024-02-26T11:13:27;12.30;99.90
6690;DHT22;76797;51.590;8.116;2024-02-26T11:15:56;12.30;99.90
6690;DHT22;76797;51.590;8.116;2024-02-26T11:18:27;12.30;99.90
6690;DHT22;76797;51.590;8.116;2024-02-26T11:20:54;12.30;99.90
6690;DHT22;76797;51.590;8.116;2024-02-26T11:23:22;12.30;99.90
6690;DHT22;76797;51.590;8.116;2024-02-26T11:25:50;12.30;99.90
6690;DHT22;76797;51.590;8.116;2024-02-26T11:28:19;12.30;99.90
6690;DHT22;76797;51.590;8.116;2024-02-26T11:30:47;12.30;99.90
6690;DHT22;76797;51.590;8.116;2024-02-26T11:33:15;12.80;99.90
6690;DHT22;76797;51.590;8.116;2024-02-26T11:35:41;12.50;99.90
6690;DHT22;76797;51.590;8.116;2024-02-26T11:38:07;12.30;99.90
6690;DHT22;76797;51.590;8.116;2024-02-26T11:40:33;12.30;99.90
6690;DHT22;76797;51.590;8.116;2024-02-26T11:43:04;12.40;99.90
6690;DHT22;76797;51.590;8.116;2024-02-26T11:48:20;12.40;99.90
6690;DHT22;76797;51.590;8.116;2024-02-26T11:50:48;12.40;99.90
6690;DHT22;76797;51.590;8.116;2024-02-26T11:55:45;12.40;99.90
6690;DHT22;76797;51.590;8.116;2024-02-26T11:58:10;12.40;99.90
6690;DHT22;76797;51.590;8.116;2024-02-26T12:00:36;12.50;99.90
6690;DHT22;76797;51.590;8.116;2024-02-26T12:03:02;12.40;99.90
6690;DHT22;76797;51.590;8.116;2024-02-26T12:05:32;12.50;99.90
6690;DHT22;76797;51.590;8.116;2024-02-26T12:08:03;12.50;99.90
6690;DHT22;76797;51.590;8.116;2024-02-26T12:10:33;12.50;99.90
6690;DHT22;76797;51.590;8.116;2024-02-26T12:13:10;12.60;99.90
6690;DHT22;76797;51.590;8.116;2024-02-26T12:15:55;12.50;99.90
6690;DHT22;76797;51.590;8.116;2024-02-26T12:18:22;12.50;99.90
6690;DHT22;76797;51.590;8.116;2024-02-26T12:20:58;12.50;99.90
6690;DHT22;76797;51.590;8.116;2024-02-26T12:23:25;12.50;99.90
6690;DHT22;76797;51.590;8.116;2024-02-26T12:25:51;12.60;99.90
6690;DHT22;76797;51.590;8.116;2024-02-26T12:28:16;12.50;99.90
6690;DHT22;76797;51.590;8.116;2024-02-26T12:30:42;12.60;99.90
6690;DHT22;76797;51.590;8.116;2024-02-26T12:33:08;12.50;99.90
6690;DHT22;76797;51.590;8.116;2024-02-26T12:35:34;13.00;99.90
6690;DHT22;76797;51.590;8.116;2024-02-26T12:38:00;12.50;99.90
6690;DHT22;76797;51.590;8.116;2024-02-26T12:40:26;12.50;99.90
6690;DHT22;76797;51.590;8.116;2024-02-26T12:42:53;12.50;99.90
6690;DHT22;76797;51.590;8.116;2024-02-26T12:45:20;12.70;99.90
6690;DHT22;76797;51.590;8.116;2024-02-26T12:47:46;12.50;99.90
6690;DHT22;76797;51.590;8.116;2024-02-26T12:50:13;12.50;99.90
6690;DHT22;76797;51.590;8.116;2024-02-26T12:52:42;12.50;99.90
6690;DHT22;76797;51.590;8.116;2024-02-26T12:55:09;12.60;99.90
6690;DHT22;76797;51.590;8.116;2024-02-26T12:57:37;12.70;99.90
6690;DHT22;76797;51.590;8.116;2024-02-26T13:00:05;12.50;99.90
6690;DHT22;76797;51.590;8.116;2024-02-26T13:02:32;12.60;99.90
6690;DHT22;76797;51.590;8.116;2024-02-26T13:04:59;12.60;99.90
6690;DHT22;76797;51.590;8.116;2024-02-26T13:07:27;12.60;99.90
6690;DHT22;76797;51.590;8.116;2024-02-26T13:09:53;12.70;99.90
6690;DHT22;76797;51.590;8.116;2024-02-26T13:12:19;12.70;99.90
6690;DHT22;76797;51.590;8.116;2024-02-26T13:14:45;12.80;99.90
6690;DHT22;76797;51.590;8.116;2024-02-26T13:17:10;12.80;99.90
6690;DHT22;76797;51.590;8.116;2024-02-26T13:19:36;13.10;99.90
6690;DHT22;76797;51.590;8.116;2024-02-26T13:22:05;12.90;99.90
6690;DHT22;76797;51.590;8.116;2024-02-26T13:24:32;12.80;99.90
6690;DHT22;76797;51.590;8.116;2024-02-26T13:26:58;12.90;99.90
6690;DHT22;76797;51.590;8.116;2024-02-26T13:29:23;12.90;99.90
6690;DHT22;76797;51.590;8.116;2024-02-26T13:31:57;13.10;99.90
6690;DHT22;76797;51.590;8.116;2024-02-26T13:34:26;13.10;99.90
6690;DHT22;76797;51.590;8.116;2024-02-26T13:36:53;13.10;99.90
6690;DHT22;76797;51.590;8.116;2024-02-26T13:39:23;13.10;99.90
6690;DHT22;76797;51.590;8.116;2024-02-26T13:41:50;13.30;99.90
6690;DHT22;76797;51.590;8.116;2024-02-26T13:44:16;13.10;99.90
6690;DHT22;76797;51.590;8.116;2024-02-26T13:46:42;13.20;99.90
6690;DHT22;76797;51.590;8.116;2024-02-26T13:49:09;13.20;99.90
6690;DHT22;76797;51.590;8.116;2024-02-26T13:51:35;13.20;99.90
6690;DHT22;76797;51.590;8.116;2024-02-26T13:54:02;13.20;99.90
6690;DHT22;76797;51.590;8.116;2024-02-26T13:56:28;13.10;99.90
6690;DHT22;76797;51.590;8.116;2024-02-26T13:58:53;13.10;99.90
6690;DHT22;76797;51.590;8.116;2024-02-26T14:01:19;13.10;99.90
6690;DHT22;76797;51.590;8.116;2024-02-26T14:03:45;13.00;99.90
6690;DHT22;76797;51.590;8.116;2024-02-26T14:06:10;13.00;99.90
6690;DHT22;76797;51.590;8.116;2024-02-26T14:08:36;13.00;99.90
6690;DHT22;76797;51.590;8.116;2024-02-26T14:11:02;12.90;99.90
6690;DHT22;76797;51.590;8.116;2024-02-26T14:13:27;12.90;99.90
6690;DHT22;76797;51.590;8.116;2024-02-26T14:15:54;13.00;99.90
6690;DHT22;76797;51.590;8.116;2024-02-26T14:18:19;12.90;99.90
6690;DHT22;76797;51.590;8.116;2024-02-26T14:20:45;12.90;99.90
6690;DHT22;76797;51.590;8.116;2024-02-26T14:23:10;12.90;99.90
6690;DHT22;76797;51.590;8.116;2024-02-26T14:25:36;12.70;99.90
6690;DHT22;76797;51.590;8.116;2024-02-26T14:28:02;12.70;99.90
6690;DHT22;76797;51.590;8.116;2024-02-26T14:30:28;12.70;99.90
6690;DHT22;76797;51.590;8.116;2024-02-26T14:32:54;12.70;99.90
6690;DHT22;76797;51.590;8.116;2024-02-26T14:35:20;12.90;99.90
6690;DHT22;76797;51.590;8.116;2024-02-26T14:37:46;12.60;99.90
6690;DHT22;76797;51.590;8.116;2024-02-26T14:40:13;12.60;99.90
6690;DHT22;76797;51.590;8.116;2024-02-26T14:42:39;12.60;99.90
6690;DHT22;76797;51.590;8.116;2024-02-26T14:45:05;12.60;99.90
6690;DHT22;76797;51.590;8.116;2024-02-26T14:47:32;12.60;99.90
6690;DHT22;76797;51.590;8.116;2024-02-26T14:49:58;12.60;99.90
6690;DHT22;76797;51.590;8.116;2024-02-26T14:52:23;12.60;99.90
6690;DHT22;76797;51.590;8.116;2024-02-26T14:54:49;12.60;99.90
6690;DHT22;76797;51.590;8.116;2024-02-26T14:57:16;12.60;99.90
6690;DHT22;76797;51.590;8.116;2024-02-26T14:59:42;12.50;99.90
6690;DHT22;76797;51.590;8.116;2024-02-26T15:02:09;12.40;99.90
6690;DHT22;76797;51.590;8.116;2024-02-26T15:04:36;12.40;99.90
6690;DHT22;76797;51.590;8.116;2024-02-26T15:07:01;12.50;99.90
6690;DHT22;76797;51.590;8.116;2024-02-26T15:09:27;12.30;99.90
6690;DHT22;76797;51.590;8.116;2024-02-26T15:11:52;12.20;99.90
6690;DHT22;76797;51.590;8.116;2024-02-26T15:14:18;12.10;99.90
6690;DHT22;76797;51.590;8.116;2024-02-26T15:16:43;12.00;99.90
6690;DHT22;76797;51.590;8.116;2024-02-26T15:19:09;12.00;99.90
6690;DHT22;76797;51.590;8.116;2024-02-26T15:21:45;11.90;99.90
6690;DHT22;76797;51.590;8.116;2024-02-26T15:24:11;11.80;99.90
6690;DHT22;76797;51.590;8.116;2024-02-26T15:26:38;11.80;99.90
6690;DHT22;76797;51.590;8.116;2024-02-26T15:29:04;11.70;99.90
6690;DHT22;76797;51.590;8.116;2024-02-26T15:31:30;11.70;99.90
6690;DHT22;76797;51.590;8.116;2024-02-26T15:33:56;11.80;99.90
6690;DHT22;76797;51.590;8.116;2024-02-26T15:36:22;11.60;99.90
6690;DHT22;76797;51.590;8.116;2024-02-26T15:38:47;11.70;99.90
6690;DHT22;76797;51.590;8.116;2024-02-26T15:41:13;11.60;99.90
6690;DHT22;76797;51.590;8.116;2024-02-26T15:43:39;11.60;99.90
6690;DHT22;76797;51.590;8.116;2024-02-26T15:46:05;11.60;99.90
6690;DHT22;76797;51.590;8.116;2024-02-26T15:48:31;11.60;99.90
6690;DHT22;76797;51.590;8.116;2024-02-26T15:50:57;11.60;99.90
6690;DHT22;76797;51.590;8.116;2024-02-26T15:53:23;11.60;99.90